Ufimets — UFNC — position and weather

sailwx.info

Track history (hours):
 
Tides and Currents Weather Stations Pressure Air Temp Water Temp Dewpoint Dewpoint Depression Visibility Wind Speed Wind Dir Waves Ship Positions

Ufimets

Last reported at 2016-Jun-23 02:26 UTC. Time now 2016-Jun-28 16:57 UTC.
Position N 59°48' E 030°38'.

Length 82 m; draft 1.8 m.

Type: Ship. MMSI: 27343260.

Date/timePositionNaut miles runAvg speedWind from/ knotsBaromVisibWave heightAir tempDewpointWater temp
2016-Jun-23 02:26N 59°48' E 030°38'2 1.7
2016-Jun-23 01:32N 59°49' E 030°36'5 3.6
2016-Jun-23 00:04N 59°52' E 030°28'3 5.7
2016-Jun-22 23:33N 59°55' E 030°25'4 4.0
2016-Jun-22 22:33N 59°56' E 030°18'0 0.3
2016-Jun-22 21:33N 59°56' E 030°17'0 0.0
2016-Jun-22 20:33N 59°56' E 030°17'0 0.0
2016-Jun-22 19:33N 59°56' E 030°17'0 0.0
2016-Jun-22 18:33N 59°56' E 030°17'0 0.0
2016-Jun-22 17:33N 59°56' E 030°17'0 0.0
2016-Jun-22 16:33N 59°56' E 030°17'4 3.9
2016-Jun-22 15:33N 59°56' E 030°09'7 7.5
2016-Jun-22 14:33N 59°56' E 029°54'8 7.8
2016-Jun-22 13:33N 59°60' E 029°40'  
2016-Jun-20 03:23N 59°59' E 029°44'4 5.1
2016-Jun-20 02:33N 59°57' E 029°52'7 6.9
2016-Jun-20 01:33N 59°54' E 030°05'6 5.8
2016-Jun-20 00:33N 59°55' E 030°16'4 4.0
2016-Jun-19 23:33N 59°55' E 030°24'0 0.1
2016-Jun-19 22:33N 59°55' E 030°24'0 0.0
2016-Jun-19 21:33N 59°55' E 030°24'0 0.0
2016-Jun-19 19:33N 59°55' E 030°24'0 0.0
2016-Jun-19 18:33N 59°55' E 030°24'0 0.0
2016-Jun-19 17:32N 59°55' E 030°24'0 0.0
2016-Jun-19 16:33N 59°55' E 030°24'0 0.0
2016-Jun-19 15:33N 59°55' E 030°24'0 0.0
2016-Jun-19 14:33N 59°55' E 030°24'5 5.1
2016-Jun-19 13:33N 59°51' E 030°30'  
2016-Jun-14 03:13N 59°48' E 030°39'2 2.7
2016-Jun-14 02:32N 59°49' E 030°36'0 0.1
2016-Jun-14 01:32N 59°49' E 030°36'5 4.4
2016-Jun-14 00:24N 59°52' E 030°28'4 4.7
2016-Jun-13 23:33N 59°55' E 030°24'3 3.4
2016-Jun-13 22:33N 59°56' E 030°17'0 0.0
2016-Jun-13 21:33N 59°56' E 030°17'0 0.0
2016-Jun-13 20:34N 59°56' E 030°17'0 0.0
2016-Jun-13 19:33N 59°56' E 030°17'0 0.0
2016-Jun-13 18:33N 59°56' E 030°17'0 0.0
2016-Jun-13 17:33N 59°56' E 030°17'0 0.0
2016-Jun-13 16:33N 59°56' E 030°17'0 0.0
2016-Jun-13 15:33N 59°56' E 030°17'0 0.0
2016-Jun-13 14:33N 59°56' E 030°17'0 0.0
2016-Jun-13 13:33N 59°56' E 030°17'0 0.0
2016-Jun-13 12:33N 59°56' E 030°17'0 0.0
2016-Jun-13 11:33N 59°56' E 030°17'0 0.0
2016-Jun-13 10:33N 59°56' E 030°17'0 0.0
2016-Jun-13 09:33N 59°56' E 030°17'0 0.0
2016-Jun-13 08:33N 59°56' E 030°17'0 0.0
2016-Jun-13 07:33N 59°56' E 030°17'0 0.0
2016-Jun-13 06:33N 59°56' E 030°17'0 0.0
2016-Jun-13 05:33N 59°56' E 030°17'0 0.0
2016-Jun-13 04:33N 59°56' E 030°17'0 0.0
2016-Jun-13 03:33N 59°56' E 030°17'0 0.0
2016-Jun-13 02:33N 59°56' E 030°17'  
Track history (hours):
 
Tides and Currents Weather Stations Pressure Air Temp Water Temp Dewpoint Dewpoint Depression Visibility Wind Speed Wind Dir Waves Ship Positions

Ufimets

Last reported at 2016-Jun-23 02:26 UTC. Time now 2016-Jun-28 16:57 UTC.
Position N 59°48' E 030°38'.

Length 82 m; draft 1.8 m.

Type: Ship. MMSI: 27343260.

Date/timePositionNaut miles runAvg speedWind from/ knotsBaromVisibWave heightAir tempDewpointWater temp
2016-Jun-23 02:26N 59°48' E 030°38'2 1.7
2016-Jun-23 01:32N 59°49' E 030°36'5 3.6
2016-Jun-23 00:04N 59°52' E 030°28'3 5.7
2016-Jun-22 23:33N 59°55' E 030°25'4 4.0
2016-Jun-22 22:33N 59°56' E 030°18'0 0.3
2016-Jun-22 21:33N 59°56' E 030°17'0 0.0
2016-Jun-22 20:33N 59°56' E 030°17'0 0.0
2016-Jun-22 19:33N 59°56' E 030°17'0 0.0
2016-Jun-22 18:33N 59°56' E 030°17'0 0.0
2016-Jun-22 17:33N 59°56' E 030°17'0 0.0
2016-Jun-22 16:33N 59°56' E 030°17'4 3.9
2016-Jun-22 15:33N 59°56' E 030°09'7 7.5
2016-Jun-22 14:33N 59°56' E 029°54'8 7.8
2016-Jun-22 13:33N 59°60' E 029°40'  
2016-Jun-20 03:23N 59°59' E 029°44'4 5.1
2016-Jun-20 02:33N 59°57' E 029°52'7 6.9
2016-Jun-20 01:33N 59°54' E 030°05'6 5.8
2016-Jun-20 00:33N 59°55' E 030°16'4 4.0
2016-Jun-19 23:33N 59°55' E 030°24'0 0.1
2016-Jun-19 22:33N 59°55' E 030°24'0 0.0
2016-Jun-19 21:33N 59°55' E 030°24'0 0.0
2016-Jun-19 19:33N 59°55' E 030°24'0 0.0
2016-Jun-19 18:33N 59°55' E 030°24'0 0.0
2016-Jun-19 17:32N 59°55' E 030°24'0 0.0
2016-Jun-19 16:33N 59°55' E 030°24'0 0.0
2016-Jun-19 15:33N 59°55' E 030°24'0 0.0
2016-Jun-19 14:33N 59°55' E 030°24'5 5.1
2016-Jun-19 13:33N 59°51' E 030°30'  
2016-Jun-14 03:13N 59°48' E 030°39'2 2.7
2016-Jun-14 02:32N 59°49' E 030°36'0 0.1
2016-Jun-14 01:32N 59°49' E 030°36'5 4.4
2016-Jun-14 00:24N 59°52' E 030°28'4 4.7
2016-Jun-13 23:33N 59°55' E 030°24'3 3.4
2016-Jun-13 22:33N 59°56' E 030°17'0 0.0
2016-Jun-13 21:33N 59°56' E 030°17'0 0.0
2016-Jun-13 20:34N 59°56' E 030°17'0 0.0
2016-Jun-13 19:33N 59°56' E 030°17'0 0.0
2016-Jun-13 18:33N 59°56' E 030°17'0 0.0
2016-Jun-13 17:33N 59°56' E 030°17'0 0.0
2016-Jun-13 16:33N 59°56' E 030°17'0 0.0
2016-Jun-13 15:33N 59°56' E 030°17'0 0.0
2016-Jun-13 14:33N 59°56' E 030°17'0 0.0
2016-Jun-13 13:33N 59°56' E 030°17'0 0.0
2016-Jun-13 12:33N 59°56' E 030°17'0 0.0
2016-Jun-13 11:33N 59°56' E 030°17'0 0.0
2016-Jun-13 10:33N 59°56' E 030°17'0 0.0
2016-Jun-13 09:33N 59°56' E 030°17'0 0.0
2016-Jun-13 08:33N 59°56' E 030°17'0 0.0
2016-Jun-13 07:33N 59°56' E 030°17'0 0.0
2016-Jun-13 06:33N 59°56' E 030°17'0 0.0
2016-Jun-13 05:33N 59°56' E 030°17'0 0.0
2016-Jun-13 04:33N 59°56' E 030°17'0 0.0
2016-Jun-13 03:33N 59°56' E 030°17'0 0.0
2016-Jun-13 02:33N 59°56' E 030°17'  

Dump ship's entire track history